Terminal Aerodrome Forecast
Issued by NWS Cleveland, OH

Home | Current Version | Previous Version | Graphics & Text | Print | Product List | Glossary On
Versions: 1 2 3 4 5 6 7 8 9 10 11 12 13 14 15 16 17
000
FTUS41 KCLE 182300
TAFCAK
TAF
KCAK 182336Z 1900/1924 24015G25KT P6SM BKN035
      TEMPO 1900/1901 5SM -SHSN
     FM190100 22014KT P6SM SCT035 BKN250
     FM191500 20015G25KT P6SM BKN035 OVC080
     FM192100 19015G25KT 2SM -SN OVC025=

USA.gov is the U.S. government's official web portal to all federal, state and local government web resources and services.